Time;durP1;ratioP1;P1;durP2;ratioP2;P2;SDS_P1;SDS_P2;PMS_P1;PMS_P2;Temp;Humidity;BMP_temperature;BMP_pressure;BME280_temperature;BME280_humidity;BME280_pressure;Samples;Min_cycle;Max_cycle;Signal;HPM_P1;HPM_P2
2023/10/15 00:01:47;;;;;;;3.05;2.95;;;;;;;;;;5957621;29;20046;-87
2023/10/15 00:04:48;;;;;;;3.40;3.30;;;;;;;;;;5959809;29;20049;-87
2023/10/15 00:07:51;;;;;;;3.67;3.58;;;;;;;;;;5952288;29;20047;-87
2023/10/15 00:10:53;;;;;;;2.53;2.53;;;;;;;;;;5958642;29;20054;-87
2023/10/15 00:13:54;;;;;;;2.55;2.55;;;;;;;;;;5958989;29;20058;-87
2023/10/15 00:16:59;;;;;;;3.13;3.03;;;;;;;;;;5960699;29;20051;-87
2023/10/15 00:20:02;;;;;;;2.85;2.75;;;;;;;;;;5954347;29;20054;-87
2023/10/15 00:23:04;;;;;;;2.45;2.45;;;;;;;;;;5965164;29;20152;-88
2023/10/15 00:26:12;;;;;;;3.33;3.13;;;;;;;;;;5973704;29;20038;-87
2023/10/15 00:29:24;;;;;;;2.92;2.83;;;;;;;;;;5960546;29;20459;-87
2023/10/15 00:32:29;;;;;;;3.00;2.90;;;;;;;;;;5955118;29;20738;-87
2023/10/15 00:35:37;;;;;;;3.28;3.08;;;;;;;;;;5960693;29;20047;-88
2023/10/15 00:38:43;;;;;;;3.15;2.97;;;;;;;;;;5952647;29;20099;-87
2023/10/15 00:41:47;;;;;;;5.88;3.45;;;;;;;;;;5972147;29;20058;-87
2023/10/15 00:44:49;;;;;;;3.60;3.40;;;;;;;;;;5958751;29;20051;-87
2023/10/15 00:48:07;;;;;;;3.47;3.17;;;;;;;;;;5959676;29;20364;-87
2023/10/15 00:51:17;;;;;;;3.13;2.92;;;;;;;;;;5958184;29;20095;-87
2023/10/15 00:54:19;;;;;;;2.70;2.60;;;;;;;;;;5958085;29;20051;-88
2023/10/15 00:57:41;;;;;;;4.82;3.25;;;;;;;;;;5959584;29;20467;-87
2023/10/15 01:00:53;;;;;;;2.90;2.80;;;;;;;;;;5959432;29;20538;-87
2023/10/15 01:03:56;;;;;;;3.03;2.92;;;;;;;;;;5956800;29;20058;-87
2023/10/15 01:07:00;;;;;;;3.72;3.50;;;;;;;;;;5958610;29;20192;-87
2023/10/15 01:10:02;;;;;;;4.10;3.80;;;;;;;;;;5954918;29;20047;-88
2023/10/15 01:13:25;;;;;;;8.70;3.90;;;;;;;;;;5957037;29;20068;-88
2023/10/15 01:16:28;;;;;;;3.63;3.53;;;;;;;;;;5952248;29;20051;-87
2023/10/15 01:19:34;;;;;;;3.55;3.45;;;;;;;;;;5948465;29;20059;-87
2023/10/15 01:22:39;;;;;;;3.72;3.63;;;;;;;;;;5957867;29;20050;-87
2023/10/15 01:25:48;;;;;;;3.47;3.38;;;;;;;;;;5958261;29;21142;-87
2023/10/15 01:28:53;;;;;;;3.45;3.28;;;;;;;;;;5954885;29;20047;-88
2023/10/15 01:32:09;;;;;;;3.20;3.10;;;;;;;;;;5961594;29;20059;-88
2023/10/15 01:35:14;;;;;;;2.60;2.60;;;;;;;;;;5957112;29;20055;-87
2023/10/15 01:38:27;;;;;;;2.92;2.85;;;;;;;;;;5952806;29;20058;-87
2023/10/15 01:41:28;;;;;;;3.08;2.97;;;;;;;;;;5957720;29;20043;-87
2023/10/15 01:44:47;;;;;;;4.00;3.13;;;;;;;;;;5958964;29;20054;-87
2023/10/15 01:50:51;;;;;;;4.45;4.25;;;;;;;;;;5972010;29;20143;-88
2023/10/15 01:53:56;;;;;;;4.07;3.42;;;;;;;;;;5956743;29;20417;-88
2023/10/15 01:56:57;;;;;;;3.13;2.97;;;;;;;;;;5956001;29;20414;-87
2023/10/15 02:00:12;;;;;;;2.53;2.53;;;;;;;;;;5957273;29;20513;-88
2023/10/15 02:03:15;;;;;;;3.22;3.13;;;;;;;;;;5958363;29;20058;-86
2023/10/15 02:06:19;;;;;;;4.22;3.92;;;;;;;;;;5956962;29;20078;-87
2023/10/15 02:09:22;;;;;;;3.58;3.40;;;;;;;;;;5980005;29;20055;-86
2023/10/15 02:12:24;;;;;;;3.28;3.17;;;;;;;;;;5965189;29;20054;-86
2023/10/15 02:15:31;;;;;;;3.10;3.00;;;;;;;;;;5957073;29;20055;-87
2023/10/15 02:18:35;;;;;;;2.70;2.60;;;;;;;;;;5956585;29;20168;-87
2023/10/15 02:21:49;;;;;;;2.72;2.65;;;;;;;;;;5954490;29;20062;-87
2023/10/15 02:24:56;;;;;;;2.90;2.80;;;;;;;;;;5946083;29;20106;-86
2023/10/15 02:27:57;;;;;;;4.70;3.75;;;;;;;;;;5971533;29;20051;-87
2023/10/15 02:34:04;;;;;;;3.25;3.15;;;;;;;;;;5963538;29;20051;-86
2023/10/15 02:37:10;;;;;;;2.63;2.60;;;;;;;;;;5954342;29;20091;-87
2023/10/15 02:40:18;;;;;;;7.45;3.80;;;;;;;;;;5955234;29;20464;-87
2023/10/15 02:43:20;;;;;;;4.35;4.25;;;;;;;;;;5947651;29;20751;-87
2023/10/15 02:46:36;;;;;;;3.22;3.13;;;;;;;;;;5951249;29;20067;-86
2023/10/15 02:49:53;;;;;;;13.95;3.67;;;;;;;;;;5954063;29;20066;-87
2023/10/15 02:52:56;;;;;;;2.97;2.88;;;;;;;;;;5957029;29;20051;-89
2023/10/15 02:55:58;;;;;;;3.55;3.40;;;;;;;;;;5954138;29;20438;-86
2023/10/15 02:59:02;;;;;;;3.28;2.90;;;;;;;;;;5971439;29;20368;-86
2023/10/15 03:02:06;;;;;;;2.83;2.72;;;;;;;;;;5954780;29;20581;-87
2023/10/15 03:05:16;;;;;;;2.40;2.40;;;;;;;;;;5951044;29;20359;-86
2023/10/15 03:08:20;;;;;;;3.30;3.20;;;;;;;;;;5954617;29;20057;-86
2023/10/15 03:11:38;;;;;;;4.10;3.88;;;;;;;;;;5982895;29;20051;-87
2023/10/15 03:14:41;;;;;;;3.72;3.63;;;;;;;;;;5956093;29;20046;-87
2023/10/15 03:17:43;;;;;;;11.18;3.50;;;;;;;;;;5964544;29;20490;-87
2023/10/15 03:20:49;;;;;;;2.72;2.63;;;;;;;;;;5955677;29;20047;-87
2023/10/15 03:23:55;;;;;;;2.67;2.58;;;;;;;;;;5951525;29;20087;-88
2023/10/15 03:26:58;;;;;;;18.63;2.83;;;;;;;;;;5957190;29;20426;-89
2023/10/15 03:29:59;;;;;;;3.17;3.08;;;;;;;;;;5956549;29;20439;-87
2023/10/15 03:33:01;;;;;;;4.18;2.72;;;;;;;;;;5962283;29;20078;-87
2023/10/15 03:36:03;;;;;;;3.13;3.03;;;;;;;;;;5968227;29;20470;-87
2023/10/15 03:39:14;;;;;;;3.25;3.05;;;;;;;;;;5960443;29;20084;-87
2023/10/15 03:45:26;;;;;;;2.85;2.75;;;;;;;;;;5960314;29;20057;-87
2023/10/15 03:48:28;;;;;;;4.37;4.27;;;;;;;;;;5958683;29;20050;-87
2023/10/15 03:51:30;;;;;;;3.05;2.95;;;;;;;;;;5960539;29;20043;-86
2023/10/15 03:54:33;;;;;;;2.60;2.60;;;;;;;;;;5972446;29;20050;-86
2023/10/15 03:57:36;;;;;;;2.50;2.50;;;;;;;;;;5960152;29;20042;-87
2023/10/15 04:00:46;;;;;;;2.60;2.60;;;;;;;;;;5959101;29;20538;-88
2023/10/15 04:03:48;;;;;;;2.92;2.83;;;;;;;;;;5969207;29;20418;-87
2023/10/15 04:07:02;;;;;;;2.60;2.60;;;;;;;;;;5972197;29;20058;-87
2023/10/15 04:10:08;;;;;;;2.88;2.78;;;;;;;;;;5958727;29;20142;-86
2023/10/15 04:13:10;;;;;;;3.08;2.97;;;;;;;;;;5958757;29;20627;-87
2023/10/15 04:16:13;;;;;;;3.08;2.97;;;;;;;;;;5960407;29;20054;-87
2023/10/15 04:19:17;;;;;;;3.13;3.03;;;;;;;;;;5951848;29;20047;-87
2023/10/15 04:22:20;;;;;;;2.88;2.78;;;;;;;;;;5959787;29;20042;-87
2023/10/15 04:25:27;;;;;;;3.10;3.00;;;;;;;;;;5960445;29;20047;-87
2023/10/15 04:28:30;;;;;;;3.38;3.28;;;;;;;;;;5959280;29;20043;-87
2023/10/15 04:31:32;;;;;;;3.30;3.13;;;;;;;;;;5956604;29;20058;-87
2023/10/15 04:34:37;;;;;;;3.42;3.33;;;;;;;;;;5957803;29;20061;-87
2023/10/15 04:37:38;;;;;;;2.45;2.45;;;;;;;;;;5965355;29;20452;-87
2023/10/15 04:44:02;;;;;;;3.60;3.27;;;;;;;;;;5956563;29;20608;-87
2023/10/15 04:47:05;;;;;;;3.10;3.00;;;;;;;;;;5958932;29;20043;-87
2023/10/15 04:50:16;;;;;;;3.45;3.35;;;;;;;;;;5959683;29;20054;-87
2023/10/15 04:56:22;;;;;;;2.85;2.75;;;;;;;;;;5958987;29;20142;-86
2023/10/15 04:59:24;;;;;;;3.22;3.13;;;;;;;;;;5959065;29;20506;-87
2023/10/15 05:02:26;;;;;;;2.75;2.67;;;;;;;;;;5958986;29;20046;-88
2023/10/15 05:05:27;;;;;;;3.00;2.90;;;;;;;;;;5958058;29;20042;-87
2023/10/15 05:08:29;;;;;;;3.05;2.90;;;;;;;;;;5957815;29;20502;-87
2023/10/15 05:11:31;;;;;;;3.00;2.90;;;;;;;;;;5954189;29;20126;-86
2023/10/15 05:14:33;;;;;;;2.80;2.70;;;;;;;;;;5954189;29;20081;-87
2023/10/15 05:17:34;;;;;;;3.20;3.10;;;;;;;;;;5957453;29;20051;-86
2023/10/15 05:20:36;;;;;;;3.20;3.10;;;;;;;;;;5951795;29;20058;-87
2023/10/15 05:23:38;;;;;;;3.10;3.00;;;;;;;;;;5957908;29;20051;-87
2023/10/15 05:26:40;;;;;;;5.65;3.17;;;;;;;;;;5958085;29;20066;-86
2023/10/15 05:29:41;;;;;;;3.70;3.08;;;;;;;;;;5958452;29;20047;-86
2023/10/15 05:32:49;;;;;;;2.55;2.45;;;;;;;;;;5956401;29;20054;-87
2023/10/15 05:35:51;;;;;;;3.33;3.22;;;;;;;;;;5945304;29;20122;-86
2023/10/15 05:38:52;;;;;;;3.17;3.08;;;;;;;;;;5957916;29;20159;-86
2023/10/15 05:41:54;;;;;;;2.80;2.75;;;;;;;;;;5968335;29;20059;-86
2023/10/15 05:44:56;;;;;;;3.67;3.47;;;;;;;;;;5957253;29;20047;-86
2023/10/15 05:47:57;;;;;;;2.88;2.78;;;;;;;;;;5954293;29;20723;-86
2023/10/15 05:50:59;;;;;;;2.78;2.67;;;;;;;;;;5953514;29;20078;-86
2023/10/15 05:54:01;;;;;;;2.80;2.72;;;;;;;;;;5956041;29;20050;-88
2023/10/15 05:57:05;;;;;;;7.43;3.15;;;;;;;;;;5956095;29;20543;-86
2023/10/15 06:00:19;;;;;;;3.47;3.38;;;;;;;;;;5952047;29;20441;-86
2023/10/15 06:03:21;;;;;;;3.63;3.50;;;;;;;;;;5958062;29;20127;-87
2023/10/15 06:06:23;;;;;;;3.63;3.53;;;;;;;;;;5956865;29;20084;-86
2023/10/15 06:09:25;;;;;;;2.75;2.67;;;;;;;;;;5957112;29;20055;-86
2023/10/15 06:12:27;;;;;;;2.63;2.55;;;;;;;;;;5958263;29;20072;-87
2023/10/15 06:15:28;;;;;;;2.50;2.50;;;;;;;;;;5957465;29;20054;-86
2023/10/15 06:18:30;;;;;;;3.58;3.38;;;;;;;;;;5956447;29;20149;-87
2023/10/15 06:21:34;;;;;;;2.95;2.85;;;;;;;;;;5953533;29;20503;-86
2023/10/15 06:24:35;;;;;;;2.85;2.75;;;;;;;;;;5953678;29;20426;-86
2023/10/15 06:27:40;;;;;;;3.03;2.92;;;;;;;;;;5956338;29;20051;-86
2023/10/15 06:30:43;;;;;;;2.63;2.60;;;;;;;;;;5953223;29;20055;-87
2023/10/15 06:33:45;;;;;;;2.70;2.60;;;;;;;;;;5955792;29;20726;-86
2023/10/15 06:36:47;;;;;;;3.42;3.33;;;;;;;;;;5955428;29;20057;-86
2023/10/15 06:39:52;;;;;;;2.80;2.70;;;;;;;;;;5955636;29;20059;-87
2023/10/15 06:43:02;;;;;;;2.42;2.42;;;;;;;;;;5970503;29;20502;-86
2023/10/15 06:46:06;;;;;;;2.90;2.78;;;;;;;;;;5956864;29;20054;-86
2023/10/15 06:49:08;;;;;;;2.75;2.72;;;;;;;;;;5955842;29;20046;-86
2023/10/15 06:52:09;;;;;;;2.45;2.45;;;;;;;;;;5956165;29;20046;-86
2023/10/15 06:55:13;;;;;;;2.72;2.70;;;;;;;;;;5971046;29;20611;-86
2023/10/15 06:58:14;;;;;;;3.13;3.03;;;;;;;;;;5956154;29;20207;-86
2023/10/15 07:01:16;;;;;;;2.92;2.83;;;;;;;;;;5956235;29;20051;-87
2023/10/15 07:04:18;;;;;;;3.45;3.35;;;;;;;;;;5953454;29;20506;-86
2023/10/15 07:07:20;;;;;;;3.00;2.90;;;;;;;;;;5959577;29;20057;-86
2023/10/15 07:10:23;;;;;;;2.97;2.88;;;;;;;;;;5962046;29;20039;-86
2023/10/15 07:13:24;;;;;;;3.03;2.92;;;;;;;;;;5964615;29;20522;-86
2023/10/15 07:16:26;;;;;;;3.13;3.03;;;;;;;;;;5965532;29;20430;-87
2023/10/15 07:19:27;;;;;;;3.60;3.50;;;;;;;;;;5988263;29;20043;-88
2023/10/15 07:22:30;;;;;;;3.53;3.42;;;;;;;;;;5960313;29;20055;-86
2023/10/15 07:25:37;;;;;;;3.30;3.20;;;;;;;;;;5961926;29;20043;-86
2023/10/15 07:28:39;;;;;;;3.60;3.50;;;;;;;;;;5961186;29;20074;-87
2023/10/15 07:31:41;;;;;;;3.08;2.97;;;;;;;;;;5958096;29;20051;-88
2023/10/15 07:34:42;;;;;;;3.20;3.05;;;;;;;;;;5959851;29;20051;-86
2023/10/15 07:37:46;;;;;;;2.75;2.65;;;;;;;;;;5959959;29;20522;-87
2023/10/15 07:40:48;;;;;;;3.28;3.17;;;;;;;;;;5959509;29;20051;-87
2023/10/15 07:43:49;;;;;;;2.90;2.80;;;;;;;;;;5959531;29;20387;-86
2023/10/15 07:46:52;;;;;;;3.60;3.50;;;;;;;;;;5961663;29;20051;-87
2023/10/15 07:49:54;;;;;;;3.03;2.92;;;;;;;;;;5960236;29;20042;-86
2023/10/15 07:52:56;;;;;;;2.85;2.75;;;;;;;;;;5960911;29;20419;-85
2023/10/15 07:55:58;;;;;;;3.25;3.15;;;;;;;;;;5957854;29;20151;-86
2023/10/15 07:59:08;;;;;;;5.90;3.00;;;;;;;;;;5957794;29;20062;-82
2023/10/15 08:02:10;;;;;;;2.95;2.85;;;;;;;;;;5958312;29;20055;-88
2023/10/15 08:05:12;;;;;;;3.08;2.97;;;;;;;;;;5951991;29;20049;-87
2023/10/15 08:08:14;;;;;;;3.58;3.47;;;;;;;;;;5947235;29;20054;-87
2023/10/15 08:11:16;;;;;;;3.13;3.03;;;;;;;;;;5959370;29;20061;-85
2023/10/15 08:14:18;;;;;;;2.78;2.67;;;;;;;;;;5954941;29;20065;-87
2023/10/15 08:17:19;;;;;;;2.85;2.70;;;;;;;;;;5968011;29;20333;-86
2023/10/15 08:20:21;;;;;;;3.35;3.25;;;;;;;;;;5963518;29;20042;-88
2023/10/15 08:23:23;;;;;;;3.08;2.97;;;;;;;;;;5958233;29;20050;-85
2023/10/15 08:26:25;;;;;;;3.25;3.15;;;;;;;;;;5956978;29;20601;-85
2023/10/15 08:29:26;;;;;;;2.95;2.85;;;;;;;;;;5959563;29;20069;-87
2023/10/15 08:32:28;;;;;;;2.47;2.47;;;;;;;;;;5957539;29;20396;-85
2023/10/15 08:35:30;;;;;;;3.85;3.75;;;;;;;;;;5959030;29;20889;-87
2023/10/15 08:38:31;;;;;;;3.10;3.00;;;;;;;;;;5943200;29;20058;-87
2023/10/15 08:41:40;;;;;;;2.55;2.55;;;;;;;;;;5958367;29;20039;-87
2023/10/15 08:44:44;;;;;;;2.90;2.80;;;;;;;;;;5958853;29;20110;-87
2023/10/15 08:47:47;;;;;;;2.50;2.50;;;;;;;;;;5959454;29;20050;-85
2023/10/15 08:50:49;;;;;;;3.00;2.90;;;;;;;;;;5958982;29;20050;-85
2023/10/15 08:53:51;;;;;;;3.00;2.90;;;;;;;;;;5957102;29;20051;-86
2023/10/15 08:56:54;;;;;;;2.25;2.25;;;;;;;;;;5959269;29;20093;-85
2023/10/15 08:59:57;;;;;;;3.25;3.15;;;;;;;;;;5959785;29;20050;-85
2023/10/15 09:03:05;;;;;;;2.92;2.83;;;;;;;;;;5957081;29;20057;-86
2023/10/15 09:06:07;;;;;;;2.95;2.85;;;;;;;;;;5959147;29;20047;-87
2023/10/15 09:09:09;;;;;;;3.85;3.75;;;;;;;;;;5958527;29;20520;-85
2023/10/15 09:12:14;;;;;;;2.72;2.63;;;;;;;;;;5959049;29;20505;-88
2023/10/15 09:15:16;;;;;;;3.10;3.00;;;;;;;;;;5956458;29;20447;-85
2023/10/15 09:18:17;;;;;;;3.50;3.40;;;;;;;;;;5956336;29;20073;-89
2023/10/15 09:21:26;;;;;;;3.22;3.13;;;;;;;;;;5986313;29;20051;-86
2023/10/15 09:24:28;;;;;;;2.60;2.60;;;;;;;;;;5958453;29;20644;-85
2023/10/15 09:27:30;;;;;;;3.13;3.03;;;;;;;;;;5956988;29;20051;-86
2023/10/15 09:30:32;;;;;;;3.17;3.08;;;;;;;;;;5955582;29;20043;-86
2023/10/15 09:33:34;;;;;;;3.78;3.67;;;;;;;;;;5956797;29;20051;-86
2023/10/15 09:36:35;;;;;;;2.80;2.70;;;;;;;;;;5954479;29;20482;-86
2023/10/15 09:39:38;;;;;;;2.78;2.67;;;;;;;;;;5952480;29;20126;-87
2023/10/15 09:42:40;;;;;;;3.72;3.55;;;;;;;;;;5957829;29;20051;-85
2023/10/15 09:45:42;;;;;;;3.10;3.00;;;;;;;;;;5957556;29;20054;-86
2023/10/15 09:48:45;;;;;;;2.72;2.63;;;;;;;;;;5958266;29;20566;-86
2023/10/15 09:51:47;;;;;;;2.67;2.65;;;;;;;;;;5958225;29;20047;-87
2023/10/15 09:54:50;;;;;;;2.67;2.67;;;;;;;;;;5957189;29;20070;-86
2023/10/15 09:57:52;;;;;;;3.40;3.30;;;;;;;;;;5956640;29;20042;-85
2023/10/15 10:01:09;;;;;;;3.22;3.13;;;;;;;;;;5956815;29;20506;-85
2023/10/15 10:04:40;;;;;;;2.85;2.75;;;;;;;;;;5956718;29;20051;-86
2023/10/15 10:08:00;;;;;;;2.70;2.70;;;;;;;;;;5946641;29;20414;-86
2023/10/15 10:11:02;;;;;;;2.83;2.72;;;;;;;;;;5968489;29;20062;-87
2023/10/15 10:14:17;;;;;;;2.90;2.80;;;;;;;;;;5954830;29;20894;-87
2023/10/15 10:17:22;;;;;;;3.15;3.05;;;;;;;;;;5956823;29;20046;-88
2023/10/15 10:20:31;;;;;;;3.90;3.75;;;;;;;;;;5955401;29;20083;-87
2023/10/15 10:23:33;;;;;;;2.72;2.63;;;;;;;;;;5947600;29;20137;-86
2023/10/15 10:26:56;;;;;;;3.28;2.92;;;;;;;;;;5955611;29;20047;-88
2023/10/15 10:30:18;;;;;;;2.60;2.60;;;;;;;;;;5966287;29;20427;-87
2023/10/15 10:33:49;;;;;;;2.40;2.40;;;;;;;;;;5956204;29;20050;-86
2023/10/15 10:36:50;;;;;;;;;;;;;;;;;;5954639;29;20050;-85
2023/10/15 10:39:52;;;;;;;2.63;2.63;;;;;;;;;;5980416;29;19929;-86
2023/10/15 10:43:01;;;;;;;3.20;3.10;;;;;;;;;;5958800;29;20058;-86
2023/10/15 10:46:06;;;;;;;2.30;2.30;;;;;;;;;;5960132;29;20512;-85
2023/10/15 10:49:13;;;;;;;2.90;2.80;;;;;;;;;;5960996;29;20052;-86
2023/10/15 10:52:15;;;;;;;3.03;2.92;;;;;;;;;;5956051;29;20070;-85
2023/10/15 10:55:30;;;;;;;3.08;2.97;;;;;;;;;;5959150;29;20043;-86
2023/10/15 10:58:34;;;;;;;2.95;2.85;;;;;;;;;;5960324;29;20054;-88
2023/10/15 11:01:43;;;;;;;2.70;2.67;;;;;;;;;;5961370;29;20063;-89
2023/10/15 11:04:45;;;;;;;2.40;2.40;;;;;;;;;;5953744;29;20104;-86
2023/10/15 11:07:47;;;;;;;2.38;2.38;;;;;;;;;;5962229;29;20422;-85
2023/10/15 11:10:50;;;;;;;2.63;2.53;;;;;;;;;;5956278;29;20047;-87
2023/10/15 11:13:55;;;;;;;3.00;2.90;;;;;;;;;;5964677;29;20066;-87
2023/10/15 11:16:56;;;;;;;2.20;2.20;;;;;;;;;;5960757;29;20047;-87
2023/10/15 11:19:58;;;;;;;2.47;2.47;;;;;;;;;;5939100;29;20050;-86
2023/10/15 11:23:01;;;;;;;2.35;2.35;;;;;;;;;;5960555;29;20458;-88
2023/10/15 11:26:03;;;;;;;2.38;2.38;;;;;;;;;;5955361;29;20145;-85
2023/10/15 11:29:05;;;;;;;13.52;2.92;;;;;;;;;;5961081;29;20561;-86
2023/10/15 11:32:08;;;;;;;2.67;2.67;;;;;;;;;;5961557;29;20051;-87
2023/10/15 11:35:15;;;;;;;2.95;2.85;;;;;;;;;;5959604;29;20064;-85
2023/10/15 11:38:17;;;;;;;2.90;2.80;;;;;;;;;;5961313;29;20518;-86
2023/10/15 11:41:19;;;;;;;3.08;2.97;;;;;;;;;;5955114;29;20058;-86
2023/10/15 11:44:26;;;;;;;2.60;2.60;;;;;;;;;;5960602;29;20047;-85
2023/10/15 11:47:32;;;;;;;2.85;2.75;;;;;;;;;;5959697;29;20047;-86
2023/10/15 11:50:34;;;;;;;2.90;2.80;;;;;;;;;;5959769;29;20069;-87
2023/10/15 11:53:40;;;;;;;2.60;2.60;;;;;;;;;;5983859;29;20059;-88
2023/10/15 11:56:50;;;;;;;2.50;2.50;;;;;;;;;;5955445;29;20047;-88
2023/10/15 11:59:53;;;;;;;2.53;2.53;;;;;;;;;;5955521;29;20074;-90
2023/10/15 12:03:02;;;;;;;2.92;2.83;;;;;;;;;;5954034;29;20125;-87
2023/10/15 12:06:04;;;;;;;3.03;2.92;;;;;;;;;;5959403;29;20047;-87
2023/10/15 12:09:12;;;;;;;3.08;2.97;;;;;;;;;;5959353;29;20047;-87
2023/10/15 12:12:14;;;;;;;2.80;2.72;;;;;;;;;;5959022;29;20430;-86
2023/10/15 12:15:16;;;;;;;3.58;3.45;;;;;;;;;;5959918;29;20503;-86
2023/10/15 12:18:17;;;;;;;2.97;2.88;;;;;;;;;;5957375;29;20054;-87
2023/10/15 12:25:00;;;;;;;8.23;7.75;;;;;;;;;;5923459;29;20084;-93
2023/10/15 12:37:45;;;;;;;4.63;4.53;;;;;;;;;;5941053;29;20035;-96
2023/10/15 12:40:59;;;;;;;2.88;2.80;;;;;;;;;;5955126;29;20069;-93
2023/10/15 12:44:14;;;;;;;2.85;2.75;;;;;;;;;;5954489;29;20143;-93
2023/10/15 12:47:22;;;;;;;2.90;2.80;;;;;;;;;;5949838;29;20055;-96
2023/10/15 12:50:24;;;;;;;3.88;3.78;;;;;;;;;;5952306;29;20062;-94
2023/10/15 12:53:26;;;;;;;3.10;3.00;;;;;;;;;;5950397;29;20095;-93
2023/10/15 12:56:30;;;;;;;4.75;2.72;;;;;;;;;;5955126;29;20108;-94
2023/10/15 12:59:32;;;;;;;3.58;3.47;;;;;;;;;;6139742;24;20025;-88
2023/10/15 13:02:38;;;;;;;3.45;3.35;;;;;;;;;;5980535;29;20135;-88
2023/10/15 13:05:40;;;;;;;3.08;2.97;;;;;;;;;;5994486;29;20062;-88
2023/10/15 13:08:42;;;;;;;2.63;2.60;;;;;;;;;;5995311;29;20050;-89
2023/10/15 13:11:44;;;;;;;3.13;3.03;;;;;;;;;;5992411;29;20057;-87
2023/10/15 13:14:46;;;;;;;2.80;2.75;;;;;;;;;;5978883;29;20054;-89
2023/10/15 13:17:48;;;;;;;2.42;2.42;;;;;;;;;;5976010;29;20589;-89
2023/10/15 13:20:51;;;;;;;3.22;3.13;;;;;;;;;;5977801;29;20276;-88
2023/10/15 13:23:52;;;;;;;3.10;3.00;;;;;;;;;;5988645;29;20187;-87
2023/10/15 13:26:56;;;;;;;3.15;3.05;;;;;;;;;;5987744;29;20125;-88
2023/10/15 13:29:58;;;;;;;3.13;3.03;;;;;;;;;;5983551;29;20077;-86
2023/10/15 13:33:01;;;;;;;3.20;3.10;;;;;;;;;;5991119;29;20056;-87
2023/10/15 13:36:03;;;;;;;3.08;2.97;;;;;;;;;;5987681;29;20050;-86
2023/10/15 13:39:05;;;;;;;2.85;2.75;;;;;;;;;;5987695;29;20565;-88
2023/10/15 13:42:08;;;;;;;2.80;2.70;;;;;;;;;;5989775;29;20054;-87
2023/10/15 13:45:10;;;;;;;2.92;2.83;;;;;;;;;;5997113;29;20088;-89
2023/10/15 13:48:12;;;;;;;2.70;2.70;;;;;;;;;;5987393;29;20050;-87
2023/10/15 13:51:14;;;;;;;3.10;3.00;;;;;;;;;;5986561;29;20409;-86
2023/10/15 13:54:17;;;;;;;3.03;2.92;;;;;;;;;;5984570;29;20413;-86
2023/10/15 13:57:19;;;;;;;3.38;3.28;;;;;;;;;;5992591;29;20133;-87
2023/10/15 14:00:21;;;;;;;3.92;3.60;;;;;;;;;;5962345;29;20047;-88
2023/10/15 14:03:23;;;;;;;3.33;3.05;;;;;;;;;;5987471;29;20050;-86
2023/10/15 14:06:27;;;;;;;3.63;3.53;;;;;;;;;;5989491;29;20146;-86
2023/10/15 14:09:33;;;;;;;2.72;2.70;;;;;;;;;;5989160;29;20133;-86
2023/10/15 14:12:35;;;;;;;2.85;2.75;;;;;;;;;;5983395;29;20057;-86
2023/10/15 14:15:37;;;;;;;3.75;3.65;;;;;;;;;;5985934;29;20470;-87
2023/10/15 14:18:41;;;;;;;3.75;3.55;;;;;;;;;;5986874;29;20050;-86
2023/10/15 14:21:43;;;;;;;3.40;3.30;;;;;;;;;;5987491;29;20510;-86
2023/10/15 14:24:47;;;;;;;2.85;2.75;;;;;;;;;;5996946;29;20053;-87
2023/10/15 14:27:49;;;;;;;2.88;2.78;;;;;;;;;;5982873;29;20057;-86
2023/10/15 14:30:52;;;;;;;3.10;2.92;;;;;;;;;;5996063;29;20393;-86
2023/10/15 14:33:54;;;;;;;2.78;2.70;;;;;;;;;;5986142;29;20375;-87
2023/10/15 14:36:57;;;;;;;3.03;2.92;;;;;;;;;;5985890;29;20057;-87
2023/10/15 14:40:00;;;;;;;3.30;3.20;;;;;;;;;;5983734;29;20349;-86
2023/10/15 14:43:02;;;;;;;3.10;3.00;;;;;;;;;;5987915;29;20420;-87
2023/10/15 14:46:04;;;;;;;3.72;3.63;;;;;;;;;;5981757;29;20057;-86
2023/10/15 14:49:05;;;;;;;2.58;2.58;;;;;;;;;;5997955;29;20349;-88
2023/10/15 14:52:07;;;;;;;3.15;3.05;;;;;;;;;;5986272;29;20042;-86
2023/10/15 14:55:09;;;;;;;2.70;2.60;;;;;;;;;;5980948;29;20627;-86
2023/10/15 14:58:11;;;;;;;2.55;2.55;;;;;;;;;;5980635;29;20408;-87
2023/10/15 15:01:12;;;;;;;3.78;3.58;;;;;;;;;;5977723;29;20137;-86
2023/10/15 15:04:16;;;;;;;3.05;2.95;;;;;;;;;;5978661;29;20042;-86
2023/10/15 15:07:18;;;;;;;3.08;2.97;;;;;;;;;;5984696;29;20046;-87
2023/10/15 15:10:19;;;;;;;2.60;2.60;;;;;;;;;;5979717;29;20443;-86
2023/10/15 15:13:21;;;;;;;2.45;2.45;;;;;;;;;;5968187;29;20526;-87
2023/10/15 15:16:23;;;;;;;2.90;2.80;;;;;;;;;;5993684;29;20476;-86
2023/10/15 15:19:25;;;;;;;2.55;2.55;;;;;;;;;;5994981;29;20117;-86
2023/10/15 15:22:26;;;;;;;6.53;3.63;;;;;;;;;;5989552;29;20046;-86
2023/10/15 15:25:29;;;;;;;2.85;2.75;;;;;;;;;;5983554;29;20238;-86
2023/10/15 15:28:34;;;;;;;3.92;3.53;;;;;;;;;;5990007;29;20038;-85
2023/10/15 15:31:35;;;;;;;3.38;3.28;;;;;;;;;;5988694;29;20872;-85
2023/10/15 15:34:38;;;;;;;2.67;2.60;;;;;;;;;;5983911;29;20042;-86
2023/10/15 15:37:41;;;;;;;3.40;3.30;;;;;;;;;;5990529;29;20058;-87
2023/10/15 15:40:53;;;;;;;3.17;3.08;;;;;;;;;;5980992;29;20088;-86
2023/10/15 15:43:56;;;;;;;2.83;2.72;;;;;;;;;;5981050;29;20050;-87
2023/10/15 15:46:58;;;;;;;3.05;2.95;;;;;;;;;;5982813;29;20050;-88
2023/10/15 15:50:00;;;;;;;2.47;2.47;;;;;;;;;;5996521;29;20658;-85
2023/10/15 15:53:02;;;;;;;3.10;3.00;;;;;;;;;;5997385;29;20045;-85
2023/10/15 15:56:08;;;;;;;3.08;2.97;;;;;;;;;;5988560;29;20042;-87
2023/10/15 15:59:10;;;;;;;3.10;3.00;;;;;;;;;;5995699;29;20046;-86
2023/10/15 16:02:12;;;;;;;2.88;2.78;;;;;;;;;;5983611;29;20053;-86
2023/10/15 16:05:20;;;;;;;3.47;3.38;;;;;;;;;;5991288;29;20072;-85
2023/10/15 16:08:22;;;;;;;3.00;2.90;;;;;;;;;;5996199;29;20060;-86
2023/10/15 16:11:24;;;;;;;3.50;3.40;;;;;;;;;;5985452;29;20052;-86
2023/10/15 16:14:26;;;;;;;3.00;2.90;;;;;;;;;;5987332;29;20089;-85
2023/10/15 16:17:28;;;;;;;2.90;2.80;;;;;;;;;;5986166;29;20110;-85
2023/10/15 16:20:30;;;;;;;3.58;3.47;;;;;;;;;;5992230;29;20129;-85
2023/10/15 16:23:32;;;;;;;2.90;2.80;;;;;;;;;;5995511;29;20556;-85
2023/10/15 16:26:35;;;;;;;3.15;3.05;;;;;;;;;;5983667;29;20069;-86
2023/10/15 16:29:37;;;;;;;3.17;3.08;;;;;;;;;;5980195;29;20137;-85
2023/10/15 16:32:39;;;;;;;3.35;3.15;;;;;;;;;;5989756;29;20054;-86
2023/10/15 16:35:41;;;;;;;3.30;3.20;;;;;;;;;;5982490;29;20104;-85
2023/10/15 16:38:43;;;;;;;3.22;3.13;;;;;;;;;;5987298;29;20113;-86
2023/10/15 16:41:44;;;;;;;3.67;3.38;;;;;;;;;;5979913;29;20057;-85
2023/10/15 16:44:46;;;;;;;10.23;3.47;;;;;;;;;;5988335;29;20447;-85
2023/10/15 16:47:48;;;;;;;3.97;3.88;;;;;;;;;;5977754;29;20505;-85
2023/10/15 16:50:51;;;;;;;3.05;2.95;;;;;;;;;;5986874;29;20058;-85
2023/10/15 16:53:53;;;;;;;3.20;3.10;;;;;;;;;;5996551;29;20056;-85
2023/10/15 16:56:55;;;;;;;3.50;3.40;;;;;;;;;;5989148;29;20039;-86
2023/10/15 16:59:57;;;;;;;3.15;3.05;;;;;;;;;;5988684;29;20368;-85
2023/10/15 17:02:59;;;;;;;2.88;2.78;;;;;;;;;;5986043;29;20534;-85
2023/10/15 17:06:02;;;;;;;3.65;3.30;;;;;;;;;;5982318;29;20053;-84
2023/10/15 17:09:04;;;;;;;3.40;3.30;;;;;;;;;;5983275;29;20069;-85
2023/10/15 17:12:06;;;;;;;3.60;3.50;;;;;;;;;;5984761;29;20042;-85
2023/10/15 17:15:15;;;;;;;4.45;4.25;;;;;;;;;;5981742;29;20062;-86
2023/10/15 17:18:17;;;;;;;4.43;4.22;;;;;;;;;;5977790;29;20043;-87
2023/10/15 17:21:19;;;;;;;4.65;4.55;;;;;;;;;;5996333;29;20046;-85
2023/10/15 17:24:21;;;;;;;4.13;3.92;;;;;;;;;;5982259;29;20481;-85
2023/10/15 17:27:22;;;;;;;3.25;3.15;;;;;;;;;;5976925;29;20088;-84
2023/10/15 17:30:25;;;;;;;3.15;3.05;;;;;;;;;;5988189;29;20057;-84
2023/10/15 17:33:27;;;;;;;4.25;4.15;;;;;;;;;;5983487;29;20507;-85
2023/10/15 17:36:29;;;;;;;3.53;3.42;;;;;;;;;;5985542;29;20552;-85
2023/10/15 17:39:45;;;;;;;3.55;3.45;;;;;;;;;;5991827;29;20519;-85
2023/10/15 17:42:47;;;;;;;3.42;3.33;;;;;;;;;;5995295;29;20050;-85
2023/10/15 17:45:49;;;;;;;3.58;3.47;;;;;;;;;;5994448;29;20489;-85
2023/10/15 17:48:51;;;;;;;3.15;3.05;;;;;;;;;;5978204;29;20103;-85
2023/10/15 17:51:53;;;;;;;3.30;3.20;;;;;;;;;;5982398;29;20046;-85
2023/10/15 17:54:55;;;;;;;3.63;3.53;;;;;;;;;;5981751;29;20138;-85
2023/10/15 17:57:57;;;;;;;3.35;3.25;;;;;;;;;;5976199;29;20057;-85
2023/10/15 18:00:58;;;;;;;3.42;3.33;;;;;;;;;;5977534;29;20102;-85
2023/10/15 18:04:00;;;;;;;3.80;3.58;;;;;;;;;;5975833;29;20057;-85
2023/10/15 18:07:02;;;;;;;3.22;3.13;;;;;;;;;;5980069;29;20046;-85
2023/10/15 18:10:05;;;;;;;3.50;3.40;;;;;;;;;;5985583;29;20077;-85
2023/10/15 18:13:07;;;;;;;4.00;3.90;;;;;;;;;;5991810;29;20042;-85
2023/10/15 18:16:10;;;;;;;3.55;3.40;;;;;;;;;;5987113;29;20050;-86
2023/10/15 18:19:11;;;;;;;3.33;3.22;;;;;;;;;;5975526;29;20054;-85
2023/10/15 18:22:13;;;;;;;5.88;3.63;;;;;;;;;;5985869;29;20054;-85
2023/10/15 18:25:16;;;;;;;3.78;3.67;;;;;;;;;;5989322;29;20084;-86
2023/10/15 18:28:18;;;;;;;3.35;3.25;;;;;;;;;;5986090;29;20080;-84
2023/10/15 18:31:23;;;;;;;4.50;4.20;;;;;;;;;;5987295;29;20042;-84
2023/10/15 18:34:25;;;;;;;3.33;3.22;;;;;;;;;;5980238;29;20053;-85
2023/10/15 18:37:28;;;;;;;3.40;3.30;;;;;;;;;;5986136;29;20050;-85
2023/10/15 18:40:30;;;;;;;3.03;2.92;;;;;;;;;;5982716;29;20046;-86
2023/10/15 18:43:34;;;;;;;3.47;3.38;;;;;;;;;;5975397;29;20624;-85
2023/10/15 18:46:35;;;;;;;3.55;3.45;;;;;;;;;;5977634;29;20083;-85
2023/10/15 18:49:37;;;;;;;3.00;2.90;;;;;;;;;;5980638;29;20042;-84
2023/10/15 18:52:39;;;;;;;4.13;4.03;;;;;;;;;;5983130;29;20465;-84